sensor_id;sensor_type;location;lat;lon;timestamp;P1;durP1;ratioP1;P2;durP2;ratioP2
3261;SDS011;1643;47.746;9.000;2023-01-31T00:01:18;4.10;;;3.67;;
3261;SDS011;1643;47.746;9.000;2023-01-31T00:03:44;3.83;;;3.47;;
3261;SDS011;1643;47.746;9.000;2023-01-31T00:06:13;4.83;;;3.63;;
3261;SDS011;1643;47.746;9.000;2023-01-31T00:08:39;5.13;;;4.17;;
3261;SDS011;1643;47.746;9.000;2023-01-31T00:11:05;4.40;;;3.27;;
3261;SDS011;1643;47.746;9.000;2023-01-31T00:13:31;3.90;;;3.50;;
3261;SDS011;1643;47.746;9.000;2023-01-31T00:15:57;5.43;;;4.50;;
3261;SDS011;1643;47.746;9.000;2023-01-31T00:18:24;6.30;;;3.90;;
3261;SDS011;1643;47.746;9.000;2023-01-31T00:20:50;4.60;;;3.47;;
3261;SDS011;1643;47.746;9.000;2023-01-31T00:23:16;4.37;;;3.60;;
3261;SDS011;1643;47.746;9.000;2023-01-31T00:25:42;4.73;;;3.90;;
3261;SDS011;1643;47.746;9.000;2023-01-31T00:28:08;4.17;;;3.37;;
3261;SDS011;1643;47.746;9.000;2023-01-31T00:30:34;4.73;;;3.60;;
3261;SDS011;1643;47.746;9.000;2023-01-31T00:33:00;5.10;;;3.63;;
3261;SDS011;1643;47.746;9.000;2023-01-31T00:35:26;4.63;;;3.67;;
3261;SDS011;1643;47.746;9.000;2023-01-31T00:37:52;3.23;;;2.83;;
3261;SDS011;1643;47.746;9.000;2023-01-31T00:40:18;4.07;;;3.50;;
3261;SDS011;1643;47.746;9.000;2023-01-31T00:42:44;4.63;;;4.10;;
3261;SDS011;1643;47.746;9.000;2023-01-31T00:45:10;5.40;;;3.87;;
3261;SDS011;1643;47.746;9.000;2023-01-31T00:47:37;4.60;;;3.33;;
3261;SDS011;1643;47.746;9.000;2023-01-31T00:50:03;3.70;;;3.17;;
3261;SDS011;1643;47.746;9.000;2023-01-31T00:52:29;3.87;;;3.50;;
3261;SDS011;1643;47.746;9.000;2023-01-31T00:54:55;4.30;;;3.70;;
3261;SDS011;1643;47.746;9.000;2023-01-31T00:57:21;3.50;;;3.20;;
3261;SDS011;1643;47.746;9.000;2023-01-31T00:59:47;5.60;;;3.83;;
3261;SDS011;1643;47.746;9.000;2023-01-31T01:02:13;4.57;;;3.70;;
3261;SDS011;1643;47.746;9.000;2023-01-31T01:04:39;4.10;;;3.57;;
3261;SDS011;1643;47.746;9.000;2023-01-31T01:07:05;4.30;;;3.43;;
3261;SDS011;1643;47.746;9.000;2023-01-31T01:09:31;4.37;;;3.67;;
3261;SDS011;1643;47.746;9.000;2023-01-31T01:11:57;4.93;;;3.83;;
3261;SDS011;1643;47.746;9.000;2023-01-31T01:14:23;6.33;;;4.27;;
3261;SDS011;1643;47.746;9.000;2023-01-31T01:16:49;5.60;;;3.60;;
3261;SDS011;1643;47.746;9.000;2023-01-31T01:19:16;4.53;;;3.70;;
3261;SDS011;1643;47.746;9.000;2023-01-31T01:21:43;5.50;;;4.03;;
3261;SDS011;1643;47.746;9.000;2023-01-31T01:24:17;5.30;;;3.70;;
3261;SDS011;1643;47.746;9.000;2023-01-31T01:26:43;4.80;;;4.33;;
3261;SDS011;1643;47.746;9.000;2023-01-31T01:29:09;5.73;;;4.20;;
3261;SDS011;1643;47.746;9.000;2023-01-31T01:31:36;5.00;;;3.90;;
3261;SDS011;1643;47.746;9.000;2023-01-31T01:34:04;5.03;;;4.07;;
3261;SDS011;1643;47.746;9.000;2023-01-31T01:36:31;6.10;;;4.50;;
3261;SDS011;1643;47.746;9.000;2023-01-31T01:38:57;6.67;;;3.87;;
3261;SDS011;1643;47.746;9.000;2023-01-31T01:41:24;3.60;;;3.10;;
3261;SDS011;1643;47.746;9.000;2023-01-31T01:43:51;5.90;;;4.10;;
3261;SDS011;1643;47.746;9.000;2023-01-31T01:46:22;4.97;;;4.13;;
3261;SDS011;1643;47.746;9.000;2023-01-31T01:48:50;5.40;;;4.10;;
3261;SDS011;1643;47.746;9.000;2023-01-31T01:51:17;4.27;;;3.67;;
3261;SDS011;1643;47.746;9.000;2023-01-31T01:53:43;5.33;;;3.97;;
3261;SDS011;1643;47.746;9.000;2023-01-31T01:56:12;6.30;;;4.50;;
3261;SDS011;1643;47.746;9.000;2023-01-31T01:58:42;4.97;;;4.00;;
3261;SDS011;1643;47.746;9.000;2023-01-31T02:01:11;3.83;;;3.53;;
3261;SDS011;1643;47.746;9.000;2023-01-31T02:03:40;5.07;;;3.50;;
3261;SDS011;1643;47.746;9.000;2023-01-31T02:06:06;4.10;;;3.70;;
3261;SDS011;1643;47.746;9.000;2023-01-31T02:08:33;3.47;;;3.10;;
3261;SDS011;1643;47.746;9.000;2023-01-31T02:13:25;7.63;;;4.23;;
3261;SDS011;1643;47.746;9.000;2023-01-31T02:15:52;4.00;;;3.60;;
3261;SDS011;1643;47.746;9.000;2023-01-31T02:18:18;3.90;;;3.37;;
3261;SDS011;1643;47.746;9.000;2023-01-31T02:39:27;4.93;;;3.77;;
3261;SDS011;1643;47.746;9.000;2023-01-31T02:44:47;4.60;;;4.10;;
3261;SDS011;1643;47.746;9.000;2023-01-31T02:47:29;4.63;;;4.20;;
3261;SDS011;1643;47.746;9.000;2023-01-31T02:50:03;4.90;;;3.70;;
3261;SDS011;1643;47.746;9.000;2023-01-31T02:52:56;4.63;;;3.83;;
3261;SDS011;1643;47.746;9.000;2023-01-31T02:55:36;5.20;;;4.00;;
3261;SDS011;1643;47.746;9.000;2023-01-31T02:58:22;5.57;;;3.73;;
3261;SDS011;1643;47.746;9.000;2023-01-31T03:00:50;5.70;;;5.00;;
3261;SDS011;1643;47.746;9.000;2023-01-31T03:03:21;4.73;;;3.73;;
3261;SDS011;1643;47.746;9.000;2023-01-31T03:08:33;6.43;;;3.90;;
3261;SDS011;1643;47.746;9.000;2023-01-31T03:11:00;6.20;;;5.27;;
3261;SDS011;1643;47.746;9.000;2023-01-31T03:13:45;6.00;;;3.87;;
3261;SDS011;1643;47.746;9.000;2023-01-31T03:21:30;4.17;;;3.53;;
3261;SDS011;1643;47.746;9.000;2023-01-31T03:23:57;4.20;;;3.77;;
3261;SDS011;1643;47.746;9.000;2023-01-31T03:26:24;5.00;;;4.40;;
3261;SDS011;1643;47.746;9.000;2023-01-31T03:28:51;5.40;;;4.00;;
3261;SDS011;1643;47.746;9.000;2023-01-31T03:31:27;5.90;;;4.50;;
3261;SDS011;1643;47.746;9.000;2023-01-31T03:33:56;5.00;;;4.47;;
3261;SDS011;1643;47.746;9.000;2023-01-31T03:36:39;7.80;;;4.70;;
3261;SDS011;1643;47.746;9.000;2023-01-31T03:39:33;6.53;;;4.03;;
3261;SDS011;1643;47.746;9.000;2023-01-31T03:44:25;4.07;;;3.37;;
3261;SDS011;1643;47.746;9.000;2023-01-31T03:47:38;4.80;;;4.30;;
3261;SDS011;1643;47.746;9.000;2023-01-31T03:49:44;6.03;;;4.63;;
3261;SDS011;1643;47.746;9.000;2023-01-31T03:52:12;7.70;;;4.90;;
3261;SDS011;1643;47.746;9.000;2023-01-31T03:54:43;6.43;;;4.70;;
3261;SDS011;1643;47.746;9.000;2023-01-31T03:57:16;6.00;;;4.27;;
3261;SDS011;1643;47.746;9.000;2023-01-31T03:59:43;5.43;;;3.70;;
3261;SDS011;1643;47.746;9.000;2023-01-31T04:02:12;6.00;;;4.10;;
3261;SDS011;1643;47.746;9.000;2023-01-31T04:04:41;6.07;;;4.40;;
3261;SDS011;1643;47.746;9.000;2023-01-31T04:07:09;5.70;;;4.17;;
3261;SDS011;1643;47.746;9.000;2023-01-31T04:09:35;5.40;;;3.97;;
3261;SDS011;1643;47.746;9.000;2023-01-31T04:12:02;5.53;;;4.10;;
3261;SDS011;1643;47.746;9.000;2023-01-31T04:14:28;5.93;;;4.30;;
3261;SDS011;1643;47.746;9.000;2023-01-31T04:16:54;8.43;;;5.17;;
3261;SDS011;1643;47.746;9.000;2023-01-31T04:19:20;4.83;;;3.80;;
3261;SDS011;1643;47.746;9.000;2023-01-31T04:21:46;6.10;;;4.53;;
3261;SDS011;1643;47.746;9.000;2023-01-31T04:24:12;4.50;;;3.77;;
3261;SDS011;1643;47.746;9.000;2023-01-31T04:26:38;6.53;;;4.53;;
3261;SDS011;1643;47.746;9.000;2023-01-31T04:29:04;5.60;;;4.27;;
3261;SDS011;1643;47.746;9.000;2023-01-31T04:31:30;5.57;;;4.20;;
3261;SDS011;1643;47.746;9.000;2023-01-31T04:33:56;5.47;;;4.23;;
3261;SDS011;1643;47.746;9.000;2023-01-31T04:36:24;4.30;;;3.80;;
3261;SDS011;1643;47.746;9.000;2023-01-31T04:38:50;6.43;;;4.87;;
3261;SDS011;1643;47.746;9.000;2023-01-31T04:41:16;4.60;;;3.97;;
3261;SDS011;1643;47.746;9.000;2023-01-31T04:43:42;6.30;;;4.20;;
3261;SDS011;1643;47.746;9.000;2023-01-31T04:46:08;8.13;;;4.73;;
3261;SDS011;1643;47.746;9.000;2023-01-31T04:48:34;6.23;;;4.00;;
3261;SDS011;1643;47.746;9.000;2023-01-31T04:51:00;5.77;;;3.87;;
3261;SDS011;1643;47.746;9.000;2023-01-31T04:53:26;5.33;;;4.30;;
3261;SDS011;1643;47.746;9.000;2023-01-31T04:55:53;12.13;;;4.80;;
3261;SDS011;1643;47.746;9.000;2023-01-31T04:58:19;6.83;;;4.70;;
3261;SDS011;1643;47.746;9.000;2023-01-31T05:00:45;5.30;;;4.00;;
3261;SDS011;1643;47.746;9.000;2023-01-31T05:03:11;6.53;;;4.70;;
3261;SDS011;1643;47.746;9.000;2023-01-31T05:05:37;7.40;;;5.53;;
3261;SDS011;1643;47.746;9.000;2023-01-31T05:08:04;6.20;;;4.43;;
3261;SDS011;1643;47.746;9.000;2023-01-31T05:10:30;7.83;;;5.77;;
3261;SDS011;1643;47.746;9.000;2023-01-31T05:12:56;6.63;;;4.87;;
3261;SDS011;1643;47.746;9.000;2023-01-31T05:15:22;7.83;;;4.47;;
3261;SDS011;1643;47.746;9.000;2023-01-31T05:17:51;7.77;;;4.77;;
3261;SDS011;1643;47.746;9.000;2023-01-31T05:20:17;9.57;;;5.47;;
3261;SDS011;1643;47.746;9.000;2023-01-31T05:22:46;5.70;;;4.70;;
3261;SDS011;1643;47.746;9.000;2023-01-31T05:25:13;4.70;;;4.13;;
3261;SDS011;1643;47.746;9.000;2023-01-31T05:27:39;7.40;;;5.27;;
3261;SDS011;1643;47.746;9.000;2023-01-31T05:30:06;6.13;;;4.37;;
3261;SDS011;1643;47.746;9.000;2023-01-31T05:32:32;5.80;;;4.20;;
3261;SDS011;1643;47.746;9.000;2023-01-31T05:34:58;7.90;;;5.30;;
3261;SDS011;1643;47.746;9.000;2023-01-31T05:37:24;4.97;;;4.47;;
3261;SDS011;1643;47.746;9.000;2023-01-31T05:39:50;7.20;;;4.77;;
3261;SDS011;1643;47.746;9.000;2023-01-31T05:42:16;6.93;;;4.60;;
3261;SDS011;1643;47.746;9.000;2023-01-31T05:44:42;5.60;;;4.90;;
3261;SDS011;1643;47.746;9.000;2023-01-31T05:47:08;6.10;;;4.50;;
3261;SDS011;1643;47.746;9.000;2023-01-31T05:49:34;5.57;;;4.63;;
3261;SDS011;1643;47.746;9.000;2023-01-31T05:52:00;7.90;;;5.13;;
3261;SDS011;1643;47.746;9.000;2023-01-31T05:54:26;9.20;;;5.60;;
3261;SDS011;1643;47.746;9.000;2023-01-31T05:56:52;7.80;;;5.10;;
3261;SDS011;1643;47.746;9.000;2023-01-31T05:59:18;5.70;;;5.07;;
3261;SDS011;1643;47.746;9.000;2023-01-31T06:01:44;6.80;;;5.30;;
3261;SDS011;1643;47.746;9.000;2023-01-31T06:04:10;8.00;;;5.40;;
3261;SDS011;1643;47.746;9.000;2023-01-31T06:06:36;6.77;;;5.60;;
3261;SDS011;1643;47.746;9.000;2023-01-31T06:09:02;5.93;;;4.60;;
3261;SDS011;1643;47.746;9.000;2023-01-31T06:11:28;9.40;;;6.40;;
3261;SDS011;1643;47.746;9.000;2023-01-31T06:13:54;7.60;;;5.70;;
3261;SDS011;1643;47.746;9.000;2023-01-31T06:16:21;8.27;;;5.53;;
3261;SDS011;1643;47.746;9.000;2023-01-31T06:18:47;6.90;;;4.50;;
3261;SDS011;1643;47.746;9.000;2023-01-31T06:21:13;10.47;;;6.13;;
3261;SDS011;1643;47.746;9.000;2023-01-31T06:23:40;7.57;;;5.30;;
3261;SDS011;1643;47.746;9.000;2023-01-31T06:26:10;9.70;;;4.83;;
3261;SDS011;1643;47.746;9.000;2023-01-31T06:28:36;6.83;;;4.37;;
3261;SDS011;1643;47.746;9.000;2023-01-31T06:31:06;7.70;;;4.77;;
3261;SDS011;1643;47.746;9.000;2023-01-31T06:33:32;6.37;;;4.93;;
3261;SDS011;1643;47.746;9.000;2023-01-31T06:35:58;9.97;;;6.03;;
3261;SDS011;1643;47.746;9.000;2023-01-31T06:38:25;7.00;;;5.37;;
3261;SDS011;1643;47.746;9.000;2023-01-31T06:40:51;6.23;;;4.67;;
3261;SDS011;1643;47.746;9.000;2023-01-31T06:43:17;5.57;;;3.90;;
3261;SDS011;1643;47.746;9.000;2023-01-31T06:45:43;9.03;;;4.90;;
3261;SDS011;1643;47.746;9.000;2023-01-31T06:48:10;6.30;;;4.43;;
3261;SDS011;1643;47.746;9.000;2023-01-31T06:50:36;8.13;;;4.70;;
3261;SDS011;1643;47.746;9.000;2023-01-31T06:53:02;10.70;;;5.63;;
3261;SDS011;1643;47.746;9.000;2023-01-31T06:55:28;7.97;;;5.33;;
3261;SDS011;1643;47.746;9.000;2023-01-31T06:57:54;5.43;;;4.43;;
3261;SDS011;1643;47.746;9.000;2023-01-31T07:00:20;6.30;;;4.73;;
3261;SDS011;1643;47.746;9.000;2023-01-31T07:02:49;7.93;;;5.00;;
3261;SDS011;1643;47.746;9.000;2023-01-31T07:05:15;8.27;;;4.90;;
3261;SDS011;1643;47.746;9.000;2023-01-31T07:07:41;9.20;;;5.10;;
3261;SDS011;1643;47.746;9.000;2023-01-31T07:10:07;7.80;;;5.83;;
3261;SDS011;1643;47.746;9.000;2023-01-31T07:12:34;7.13;;;5.13;;
3261;SDS011;1643;47.746;9.000;2023-01-31T07:15:00;6.80;;;4.43;;
3261;SDS011;1643;47.746;9.000;2023-01-31T07:17:26;6.17;;;4.93;;
3261;SDS011;1643;47.746;9.000;2023-01-31T07:19:52;6.90;;;5.17;;
3261;SDS011;1643;47.746;9.000;2023-01-31T07:22:18;6.80;;;4.80;;
3261;SDS011;1643;47.746;9.000;2023-01-31T07:24:44;7.97;;;6.37;;
3261;SDS011;1643;47.746;9.000;2023-01-31T07:27:13;9.63;;;5.80;;
3261;SDS011;1643;47.746;9.000;2023-01-31T07:29:39;10.07;;;5.30;;
3261;SDS011;1643;47.746;9.000;2023-01-31T07:32:05;7.50;;;5.30;;
3261;SDS011;1643;47.746;9.000;2023-01-31T07:34:31;9.03;;;6.03;;
3261;SDS011;1643;47.746;9.000;2023-01-31T07:36:57;7.63;;;4.90;;
3261;SDS011;1643;47.746;9.000;2023-01-31T07:39:25;5.77;;;4.70;;
3261;SDS011;1643;47.746;9.000;2023-01-31T07:41:51;7.87;;;5.87;;
3261;SDS011;1643;47.746;9.000;2023-01-31T07:44:17;9.10;;;6.07;;
3261;SDS011;1643;47.746;9.000;2023-01-31T07:46:43;6.90;;;5.67;;
3261;SDS011;1643;47.746;9.000;2023-01-31T07:49:09;8.23;;;5.70;;
3261;SDS011;1643;47.746;9.000;2023-01-31T07:51:35;10.20;;;6.10;;
3261;SDS011;1643;47.746;9.000;2023-01-31T07:54:03;6.70;;;5.30;;
3261;SDS011;1643;47.746;9.000;2023-01-31T07:56:28;8.60;;;6.57;;
3261;SDS011;1643;47.746;9.000;2023-01-31T07:58:54;7.93;;;5.43;;
3261;SDS011;1643;47.746;9.000;2023-01-31T08:01:22;10.80;;;6.40;;
3261;SDS011;1643;47.746;9.000;2023-01-31T08:04:08;12.47;;;7.17;;
3261;SDS011;1643;47.746;9.000;2023-01-31T08:06:34;8.37;;;6.30;;
3261;SDS011;1643;47.746;9.000;2023-01-31T08:09:01;9.53;;;5.40;;
3261;SDS011;1643;47.746;9.000;2023-01-31T08:11:27;7.23;;;5.57;;
3261;SDS011;1643;47.746;9.000;2023-01-31T08:13:53;10.40;;;6.30;;
3261;SDS011;1643;47.746;9.000;2023-01-31T08:16:20;13.33;;;7.23;;
3261;SDS011;1643;47.746;9.000;2023-01-31T08:18:49;7.90;;;5.90;;
3261;SDS011;1643;47.746;9.000;2023-01-31T08:21:16;8.17;;;5.93;;
3261;SDS011;1643;47.746;9.000;2023-01-31T08:23:42;9.60;;;5.50;;
3261;SDS011;1643;47.746;9.000;2023-01-31T08:26:18;12.30;;;6.80;;
3261;SDS011;1643;47.746;9.000;2023-01-31T08:28:45;10.17;;;5.87;;
3261;SDS011;1643;47.746;9.000;2023-01-31T08:31:16;9.83;;;5.50;;
3261;SDS011;1643;47.746;9.000;2023-01-31T08:33:42;6.63;;;4.77;;
3261;SDS011;1643;47.746;9.000;2023-01-31T08:36:09;7.13;;;5.63;;
3261;SDS011;1643;47.746;9.000;2023-01-31T08:38:35;8.40;;;5.90;;
3261;SDS011;1643;47.746;9.000;2023-01-31T08:41:01;8.20;;;6.03;;
3261;SDS011;1643;47.746;9.000;2023-01-31T08:43:27;8.53;;;6.57;;
3261;SDS011;1643;47.746;9.000;2023-01-31T08:45:53;7.20;;;5.00;;
3261;SDS011;1643;47.746;9.000;2023-01-31T08:48:19;6.50;;;4.70;;
3261;SDS011;1643;47.746;9.000;2023-01-31T08:50:45;9.90;;;5.83;;
3261;SDS011;1643;47.746;9.000;2023-01-31T08:53:11;9.23;;;5.33;;
3261;SDS011;1643;47.746;9.000;2023-01-31T08:55:37;6.20;;;5.20;;
3261;SDS011;1643;47.746;9.000;2023-01-31T08:58:03;5.90;;;5.07;;
3261;SDS011;1643;47.746;9.000;2023-01-31T09:00:30;11.40;;;5.37;;
3261;SDS011;1643;47.746;9.000;2023-01-31T09:02:57;5.97;;;4.73;;
3261;SDS011;1643;47.746;9.000;2023-01-31T09:05:24;7.70;;;5.03;;
3261;SDS011;1643;47.746;9.000;2023-01-31T09:07:50;6.00;;;4.47;;
3261;SDS011;1643;47.746;9.000;2023-01-31T09:10:17;8.23;;;5.70;;
3261;SDS011;1643;47.746;9.000;2023-01-31T09:12:43;9.10;;;5.30;;
3261;SDS011;1643;47.746;9.000;2023-01-31T09:15:09;12.43;;;5.83;;
3261;SDS011;1643;47.746;9.000;2023-01-31T09:17:35;16.07;;;5.90;;
3261;SDS011;1643;47.746;9.000;2023-01-31T09:20:01;9.70;;;6.13;;
3261;SDS011;1643;47.746;9.000;2023-01-31T09:22:30;7.10;;;5.20;;
3261;SDS011;1643;47.746;9.000;2023-01-31T09:24:57;12.23;;;6.77;;
3261;SDS011;1643;47.746;9.000;2023-01-31T09:27:23;9.90;;;5.40;;
3261;SDS011;1643;47.746;9.000;2023-01-31T09:29:49;7.93;;;5.43;;
3261;SDS011;1643;47.746;9.000;2023-01-31T09:32:15;7.50;;;5.10;;
3261;SDS011;1643;47.746;9.000;2023-01-31T09:34:41;9.57;;;5.57;;
3261;SDS011;1643;47.746;9.000;2023-01-31T09:37:07;8.30;;;5.30;;
3261;SDS011;1643;47.746;9.000;2023-01-31T09:39:33;7.77;;;4.97;;
3261;SDS011;1643;47.746;9.000;2023-01-31T09:42:00;7.07;;;4.90;;
3261;SDS011;1643;47.746;9.000;2023-01-31T09:44:32;9.70;;;4.50;;
3261;SDS011;1643;47.746;9.000;2023-01-31T09:47:07;6.97;;;4.27;;
3261;SDS011;1643;47.746;9.000;2023-01-31T09:49:43;10.00;;;5.30;;
3261;SDS011;1643;47.746;9.000;2023-01-31T09:52:10;7.93;;;5.37;;
3261;SDS011;1643;47.746;9.000;2023-01-31T09:54:37;8.90;;;4.80;;
3261;SDS011;1643;47.746;9.000;2023-01-31T09:57:06;6.93;;;4.50;;
3261;SDS011;1643;47.746;9.000;2023-01-31T10:02:45;6.40;;;4.53;;
3261;SDS011;1643;47.746;9.000;2023-01-31T10:12:56;6.40;;;4.63;;
3261;SDS011;1643;47.746;9.000;2023-01-31T10:17:58;9.80;;;4.93;;
3261;SDS011;1643;47.746;9.000;2023-01-31T10:20:32;9.70;;;5.30;;
3261;SDS011;1643;47.746;9.000;2023-01-31T10:23:11;6.40;;;4.33;;
3261;SDS011;1643;47.746;9.000;2023-01-31T10:25:45;5.50;;;4.43;;
3261;SDS011;1643;47.746;9.000;2023-01-31T10:28:30;6.93;;;4.60;;
3261;SDS011;1643;47.746;9.000;2023-01-31T10:31:06;7.20;;;4.13;;
3261;SDS011;1643;47.746;9.000;2023-01-31T10:36:37;9.57;;;4.60;;
3261;SDS011;1643;47.746;9.000;2023-01-31T10:41:46;5.73;;;4.43;;
3261;SDS011;1643;47.746;9.000;2023-01-31T10:44:20;9.30;;;3.80;;
3261;SDS011;1643;47.746;9.000;2023-01-31T10:46:48;6.43;;;4.20;;
3261;SDS011;1643;47.746;9.000;2023-01-31T10:49:16;6.07;;;4.60;;
3261;SDS011;1643;47.746;9.000;2023-01-31T10:56:42;9.73;;;5.00;;
3261;SDS011;1643;47.746;9.000;2023-01-31T10:59:51;7.27;;;4.53;;
3261;SDS011;1643;47.746;9.000;2023-01-31T11:01:58;5.33;;;3.87;;
3261;SDS011;1643;47.746;9.000;2023-01-31T11:04:37;10.90;;;5.10;;
3261;SDS011;1643;47.746;9.000;2023-01-31T11:07:04;6.17;;;4.53;;
3261;SDS011;1643;47.746;9.000;2023-01-31T11:09:35;7.40;;;5.50;;
3261;SDS011;1643;47.746;9.000;2023-01-31T11:12:03;6.70;;;5.10;;
3261;SDS011;1643;47.746;9.000;2023-01-31T11:14:29;6.17;;;4.87;;
3261;SDS011;1643;47.746;9.000;2023-01-31T11:17:00;9.17;;;5.33;;
3261;SDS011;1643;47.746;9.000;2023-01-31T11:22:28;6.13;;;4.57;;
3261;SDS011;1643;47.746;9.000;2023-01-31T11:24:56;9.67;;;5.60;;
3261;SDS011;1643;47.746;9.000;2023-01-31T11:27:27;10.87;;;5.10;;
3261;SDS011;1643;47.746;9.000;2023-01-31T11:29:56;7.00;;;4.40;;
3261;SDS011;1643;47.746;9.000;2023-01-31T11:32:24;7.97;;;4.87;;
3261;SDS011;1643;47.746;9.000;2023-01-31T11:34:55;9.77;;;5.20;;
3261;SDS011;1643;47.746;9.000;2023-01-31T11:37:22;5.23;;;4.57;;
3261;SDS011;1643;47.746;9.000;2023-01-31T11:40:00;4.70;;;4.13;;
3261;SDS011;1643;47.746;9.000;2023-01-31T11:42:26;7.63;;;4.20;;
3261;SDS011;1643;47.746;9.000;2023-01-31T11:44:53;7.30;;;4.77;;
3261;SDS011;1643;47.746;9.000;2023-01-31T11:47:21;8.27;;;5.33;;
3261;SDS011;1643;47.746;9.000;2023-01-31T11:49:50;5.90;;;4.57;;
3261;SDS011;1643;47.746;9.000;2023-01-31T11:52:17;7.47;;;4.70;;
3261;SDS011;1643;47.746;9.000;2023-01-31T11:54:48;6.10;;;4.40;;
3261;SDS011;1643;47.746;9.000;2023-01-31T11:57:16;4.43;;;4.03;;
3261;SDS011;1643;47.746;9.000;2023-01-31T11:59:42;6.93;;;4.63;;
3261;SDS011;1643;47.746;9.000;2023-01-31T12:05:07;5.57;;;4.70;;
3261;SDS011;1643;47.746;9.000;2023-01-31T12:12:54;9.10;;;5.20;;
3261;SDS011;1643;47.746;9.000;2023-01-31T12:15:22;10.33;;;5.50;;
3261;SDS011;1643;47.746;9.000;2023-01-31T12:17:48;6.80;;;4.80;;
3261;SDS011;1643;47.746;9.000;2023-01-31T12:26:15;8.17;;;5.80;;
3261;SDS011;1643;47.746;9.000;2023-01-31T12:29:47;6.87;;;4.70;;
3261;SDS011;1643;47.746;9.000;2023-01-31T12:37:09;6.10;;;5.00;;
3261;SDS011;1643;47.746;9.000;2023-01-31T12:39:46;8.03;;;4.87;;
3261;SDS011;1643;47.746;9.000;2023-01-31T12:47:33;7.23;;;4.73;;
3261;SDS011;1643;47.746;9.000;2023-01-31T12:55:12;11.53;;;4.77;;
3261;SDS011;1643;47.746;9.000;2023-01-31T13:06:02;7.63;;;4.37;;
3261;SDS011;1643;47.746;9.000;2023-01-31T13:08:30;13.47;;;4.60;;
3261;SDS011;1643;47.746;9.000;2023-01-31T13:11:01;8.30;;;4.60;;
3261;SDS011;1643;47.746;9.000;2023-01-31T13:13:32;4.30;;;3.70;;
3261;SDS011;1643;47.746;9.000;2023-01-31T13:16:02;5.03;;;3.40;;
3261;SDS011;1643;47.746;9.000;2023-01-31T13:18:31;4.47;;;3.17;;
3261;SDS011;1643;47.746;9.000;2023-01-31T13:21:03;7.30;;;3.80;;
3261;SDS011;1643;47.746;9.000;2023-01-31T13:23:35;7.33;;;3.90;;
3261;SDS011;1643;47.746;9.000;2023-01-31T13:26:06;7.00;;;2.97;;
3261;SDS011;1643;47.746;9.000;2023-01-31T13:28:54;4.87;;;3.10;;
3261;SDS011;1643;47.746;9.000;2023-01-31T13:31:23;8.30;;;4.00;;
3261;SDS011;1643;47.746;9.000;2023-01-31T13:36:32;5.20;;;3.60;;
3261;SDS011;1643;47.746;9.000;2023-01-31T13:39:01;9.43;;;3.33;;
3261;SDS011;1643;47.746;9.000;2023-01-31T13:41:31;5.80;;;2.93;;
3261;SDS011;1643;47.746;9.000;2023-01-31T13:43:58;5.70;;;3.03;;
3261;SDS011;1643;47.746;9.000;2023-01-31T13:48:54;10.00;;;2.80;;
3261;SDS011;1643;47.746;9.000;2023-01-31T13:51:25;6.83;;;3.90;;
3261;SDS011;1643;47.746;9.000;2023-01-31T13:54:06;6.50;;;3.30;;
3261;SDS011;1643;47.746;9.000;2023-01-31T13:56:36;3.90;;;2.97;;
3261;SDS011;1643;47.746;9.000;2023-01-31T13:59:05;2.77;;;2.27;;
3261;SDS011;1643;47.746;9.000;2023-01-31T14:01:33;4.33;;;2.67;;
3261;SDS011;1643;47.746;9.000;2023-01-31T14:09:33;9.13;;;2.93;;
3261;SDS011;1643;47.746;9.000;2023-01-31T14:12:00;6.13;;;3.07;;
3261;SDS011;1643;47.746;9.000;2023-01-31T14:17:11;3.90;;;2.97;;
3261;SDS011;1643;47.746;9.000;2023-01-31T14:22:14;9.83;;;3.03;;
3261;SDS011;1643;47.746;9.000;2023-01-31T14:27:25;6.30;;;3.27;;
3261;SDS011;1643;47.746;9.000;2023-01-31T14:32:45;5.07;;;3.33;;
3261;SDS011;1643;47.746;9.000;2023-01-31T14:37:45;8.97;;;4.40;;
3261;SDS011;1643;47.746;9.000;2023-01-31T14:40:15;8.97;;;3.67;;
3261;SDS011;1643;47.746;9.000;2023-01-31T14:48:10;8.07;;;4.00;;
3261;SDS011;1643;47.746;9.000;2023-01-31T14:58:39;5.57;;;2.80;;
3261;SDS011;1643;47.746;9.000;2023-01-31T15:01:06;8.17;;;3.80;;
3261;SDS011;1643;47.746;9.000;2023-01-31T15:03:34;7.77;;;3.77;;
3261;SDS011;1643;47.746;9.000;2023-01-31T15:11:46;11.13;;;4.30;;
3261;SDS011;1643;47.746;9.000;2023-01-31T15:17:00;7.87;;;4.40;;
3261;SDS011;1643;47.746;9.000;2023-01-31T15:19:29;6.43;;;4.23;;
3261;SDS011;1643;47.746;9.000;2023-01-31T15:22:01;12.30;;;4.57;;
3261;SDS011;1643;47.746;9.000;2023-01-31T15:24:35;5.70;;;3.40;;
3261;SDS011;1643;47.746;9.000;2023-01-31T15:27:03;4.40;;;3.50;;
3261;SDS011;1643;47.746;9.000;2023-01-31T15:29:32;7.13;;;4.60;;
3261;SDS011;1643;47.746;9.000;2023-01-31T15:32:16;7.80;;;3.33;;
3261;SDS011;1643;47.746;9.000;2023-01-31T15:34:47;6.37;;;3.40;;
3261;SDS011;1643;47.746;9.000;2023-01-31T15:37:17;6.17;;;3.90;;
3261;SDS011;1643;47.746;9.000;2023-01-31T15:40:31;6.60;;;4.63;;
3261;SDS011;1643;47.746;9.000;2023-01-31T15:42:32;6.20;;;3.57;;
3261;SDS011;1643;47.746;9.000;2023-01-31T15:47:45;9.77;;;4.07;;
3261;SDS011;1643;47.746;9.000;2023-01-31T15:50:19;13.17;;;4.20;;
3261;SDS011;1643;47.746;9.000;2023-01-31T15:52:45;5.77;;;3.90;;
3261;SDS011;1643;47.746;9.000;2023-01-31T15:55:12;6.37;;;3.90;;
3261;SDS011;1643;47.746;9.000;2023-01-31T15:57:43;4.63;;;3.90;;
3261;SDS011;1643;47.746;9.000;2023-01-31T16:00:27;6.60;;;3.60;;
3261;SDS011;1643;47.746;9.000;2023-01-31T16:02:54;4.10;;;3.63;;
3261;SDS011;1643;47.746;9.000;2023-01-31T16:05:28;5.07;;;3.70;;
3261;SDS011;1643;47.746;9.000;2023-01-31T16:07:55;9.93;;;4.00;;
3261;SDS011;1643;47.746;9.000;2023-01-31T16:10:21;7.67;;;4.83;;
3261;SDS011;1643;47.746;9.000;2023-01-31T16:12:48;6.57;;;3.70;;
3261;SDS011;1643;47.746;9.000;2023-01-31T16:15:22;10.20;;;4.70;;
3261;SDS011;1643;47.746;9.000;2023-01-31T16:17:49;13.97;;;4.80;;
3261;SDS011;1643;47.746;9.000;2023-01-31T16:22:59;5.53;;;4.37;;
3261;SDS011;1643;47.746;9.000;2023-01-31T16:25:25;7.00;;;3.83;;
3261;SDS011;1643;47.746;9.000;2023-01-31T16:27:52;6.43;;;4.10;;
3261;SDS011;1643;47.746;9.000;2023-01-31T16:30:19;7.30;;;4.03;;
3261;SDS011;1643;47.746;9.000;2023-01-31T16:32:45;11.93;;;4.60;;
3261;SDS011;1643;47.746;9.000;2023-01-31T16:35:23;6.93;;;4.57;;
3261;SDS011;1643;47.746;9.000;2023-01-31T16:40:27;6.80;;;4.40;;
3261;SDS011;1643;47.746;9.000;2023-01-31T16:43:39;9.37;;;4.40;;
3261;SDS011;1643;47.746;9.000;2023-01-31T16:45:40;7.50;;;4.17;;
3261;SDS011;1643;47.746;9.000;2023-01-31T16:48:22;6.80;;;3.67;;
3261;SDS011;1643;47.746;9.000;2023-01-31T16:50:50;5.40;;;3.73;;
3261;SDS011;1643;47.746;9.000;2023-01-31T16:53:30;5.80;;;3.77;;
3261;SDS011;1643;47.746;9.000;2023-01-31T16:58:42;5.20;;;4.33;;
3261;SDS011;1643;47.746;9.000;2023-01-31T17:01:10;6.60;;;4.40;;
3261;SDS011;1643;47.746;9.000;2023-01-31T17:03:37;3.93;;;3.53;;
3261;SDS011;1643;47.746;9.000;2023-01-31T17:06:03;6.73;;;3.47;;
3261;SDS011;1643;47.746;9.000;2023-01-31T17:08:29;7.87;;;3.90;;
3261;SDS011;1643;47.746;9.000;2023-01-31T17:10:57;6.07;;;4.40;;
3261;SDS011;1643;47.746;9.000;2023-01-31T17:13:23;5.67;;;3.80;;
3261;SDS011;1643;47.746;9.000;2023-01-31T17:15:50;6.80;;;4.00;;
3261;SDS011;1643;47.746;9.000;2023-01-31T17:18:16;12.03;;;3.80;;
3261;SDS011;1643;47.746;9.000;2023-01-31T17:20:43;4.60;;;3.47;;
3261;SDS011;1643;47.746;9.000;2023-01-31T17:23:11;7.43;;;3.93;;
3261;SDS011;1643;47.746;9.000;2023-01-31T17:25:38;3.40;;;3.13;;
3261;SDS011;1643;47.746;9.000;2023-01-31T17:28:04;6.40;;;4.00;;
3261;SDS011;1643;47.746;9.000;2023-01-31T17:30:30;3.80;;;3.10;;
3261;SDS011;1643;47.746;9.000;2023-01-31T17:32:57;6.57;;;3.60;;
3261;SDS011;1643;47.746;9.000;2023-01-31T17:35:37;6.03;;;3.70;;
3261;SDS011;1643;47.746;9.000;2023-01-31T17:38:03;7.13;;;4.07;;
3261;SDS011;1643;47.746;9.000;2023-01-31T17:40:29;6.93;;;3.97;;
3261;SDS011;1643;47.746;9.000;2023-01-31T17:42:56;9.10;;;3.90;;
3261;SDS011;1643;47.746;9.000;2023-01-31T17:45:23;7.30;;;3.23;;
3261;SDS011;1643;47.746;9.000;2023-01-31T17:47:49;4.30;;;3.13;;
3261;SDS011;1643;47.746;9.000;2023-01-31T17:50:17;9.03;;;4.10;;
3261;SDS011;1643;47.746;9.000;2023-01-31T17:52:44;6.83;;;3.30;;
3261;SDS011;1643;47.746;9.000;2023-01-31T17:55:10;8.10;;;4.03;;
3261;SDS011;1643;47.746;9.000;2023-01-31T17:57:36;4.33;;;3.53;;
3261;SDS011;1643;47.746;9.000;2023-01-31T18:00:03;5.07;;;3.30;;